sensor_id;sensor_type;location;lat;lon;timestamp;P1;durP1;ratioP1;P2;durP2;ratioP2
53903;SDS011;39812;52.430;16.936;2023-08-24T00:00:31;5.05;;;2.85;;
53903;SDS011;39812;52.430;16.936;2023-08-24T00:03:00;6.50;;;2.95;;
53903;SDS011;39812;52.430;16.936;2023-08-24T00:05:27;4.57;;;2.88;;
53903;SDS011;39812;52.430;16.936;2023-08-24T00:07:53;6.38;;;2.88;;
53903;SDS011;39812;52.430;16.936;2023-08-24T00:10:19;4.75;;;2.95;;
53903;SDS011;39812;52.430;16.936;2023-08-24T00:12:44;4.55;;;3.05;;
53903;SDS011;39812;52.430;16.936;2023-08-24T00:15:10;5.40;;;3.17;;
53903;SDS011;39812;52.430;16.936;2023-08-24T00:17:37;4.85;;;2.80;;
53903;SDS011;39812;52.430;16.936;2023-08-24T00:20:03;4.18;;;2.40;;
53903;SDS011;39812;52.430;16.936;2023-08-24T00:22:35;4.38;;;2.90;;
53903;SDS011;39812;52.430;16.936;2023-08-24T00:25:01;5.68;;;2.88;;
53903;SDS011;39812;52.430;16.936;2023-08-24T00:27:27;4.72;;;2.88;;
53903;SDS011;39812;52.430;16.936;2023-08-24T00:29:52;6.38;;;2.65;;
53903;SDS011;39812;52.430;16.936;2023-08-24T00:32:18;6.43;;;2.95;;
53903;SDS011;39812;52.430;16.936;2023-08-24T00:34:43;7.68;;;2.80;;
53903;SDS011;39812;52.430;16.936;2023-08-24T00:37:09;6.10;;;2.70;;
53903;SDS011;39812;52.430;16.936;2023-08-24T00:39:35;4.07;;;3.05;;
53903;SDS011;39812;52.430;16.936;2023-08-24T00:42:00;5.75;;;3.08;;
53903;SDS011;39812;52.430;16.936;2023-08-24T00:44:26;5.50;;;3.08;;
53903;SDS011;39812;52.430;16.936;2023-08-24T00:46:52;5.63;;;3.00;;
53903;SDS011;39812;52.430;16.936;2023-08-24T00:49:18;6.60;;;2.90;;
53903;SDS011;39812;52.430;16.936;2023-08-24T00:51:43;6.47;;;3.08;;
53903;SDS011;39812;52.430;16.936;2023-08-24T00:54:09;4.88;;;2.92;;
53903;SDS011;39812;52.430;16.936;2023-08-24T00:56:36;3.92;;;2.88;;
53903;SDS011;39812;52.430;16.936;2023-08-24T00:59:02;4.53;;;3.05;;
53903;SDS011;39812;52.430;16.936;2023-08-24T01:01:27;6.35;;;3.28;;
53903;SDS011;39812;52.430;16.936;2023-08-24T01:03:53;6.55;;;3.60;;
53903;SDS011;39812;52.430;16.936;2023-08-24T01:06:19;6.00;;;3.20;;
53903;SDS011;39812;52.430;16.936;2023-08-24T01:08:44;4.90;;;3.05;;
53903;SDS011;39812;52.430;16.936;2023-08-24T01:11:26;6.68;;;2.92;;
53903;SDS011;39812;52.430;16.936;2023-08-24T01:16:59;4.82;;;3.00;;
53903;SDS011;39812;52.430;16.936;2023-08-24T01:22:02;5.38;;;3.17;;
53903;SDS011;39812;52.430;16.936;2023-08-24T01:24:31;6.80;;;3.28;;
53903;SDS011;39812;52.430;16.936;2023-08-24T01:27:05;6.53;;;2.90;;
53903;SDS011;39812;52.430;16.936;2023-08-24T01:29:31;4.85;;;2.88;;
53903;SDS011;39812;52.430;16.936;2023-08-24T01:31:57;6.50;;;2.92;;
53903;SDS011;39812;52.430;16.936;2023-08-24T01:34:23;5.07;;;3.17;;
53903;SDS011;39812;52.430;16.936;2023-08-24T01:36:48;7.50;;;3.47;;
53903;SDS011;39812;52.430;16.936;2023-08-24T01:39:18;5.03;;;2.95;;
53903;SDS011;39812;52.430;16.936;2023-08-24T01:41:52;5.47;;;3.10;;
53903;SDS011;39812;52.430;16.936;2023-08-24T01:44:20;4.15;;;3.10;;
53903;SDS011;39812;52.430;16.936;2023-08-24T01:46:48;4.93;;;3.10;;
53903;SDS011;39812;52.430;16.936;2023-08-24T01:49:17;7.43;;;3.20;;
53903;SDS011;39812;52.430;16.936;2023-08-24T01:51:43;7.55;;;3.17;;
53903;SDS011;39812;52.430;16.936;2023-08-24T01:54:10;4.60;;;2.95;;
53903;SDS011;39812;52.430;16.936;2023-08-24T01:56:36;5.72;;;2.95;;
53903;SDS011;39812;52.430;16.936;2023-08-24T01:59:02;9.07;;;3.40;;
53903;SDS011;39812;52.430;16.936;2023-08-24T02:01:28;7.05;;;4.15;;
53903;SDS011;39812;52.430;16.936;2023-08-24T02:03:54;7.05;;;3.70;;
53903;SDS011;39812;52.430;16.936;2023-08-24T02:06:19;6.68;;;3.20;;
53903;SDS011;39812;52.430;16.936;2023-08-24T02:08:45;4.63;;;3.45;;
53903;SDS011;39812;52.430;16.936;2023-08-24T02:11:10;4.78;;;3.60;;
53903;SDS011;39812;52.430;16.936;2023-08-24T02:13:36;7.70;;;3.40;;
53903;SDS011;39812;52.430;16.936;2023-08-24T02:16:02;6.60;;;3.75;;
53903;SDS011;39812;52.430;16.936;2023-08-24T02:18:33;8.20;;;3.80;;
53903;SDS011;39812;52.430;16.936;2023-08-24T02:20:59;5.00;;;3.10;;
53903;SDS011;39812;52.430;16.936;2023-08-24T02:23:24;5.93;;;3.50;;
53903;SDS011;39812;52.430;16.936;2023-08-24T02:25:50;6.85;;;4.00;;
53903;SDS011;39812;52.430;16.936;2023-08-24T02:28:16;6.30;;;3.70;;
53903;SDS011;39812;52.430;16.936;2023-08-24T02:30:41;8.20;;;3.90;;
53903;SDS011;39812;52.430;16.936;2023-08-24T02:33:07;5.97;;;3.65;;
53903;SDS011;39812;52.430;16.936;2023-08-24T02:35:33;5.85;;;3.70;;
53903;SDS011;39812;52.430;16.936;2023-08-24T02:37:58;6.15;;;3.40;;
53903;SDS011;39812;52.430;16.936;2023-08-24T02:40:24;5.90;;;3.38;;
53903;SDS011;39812;52.430;16.936;2023-08-24T02:42:49;5.00;;;3.65;;
53903;SDS011;39812;52.430;16.936;2023-08-24T02:45:15;4.88;;;3.72;;
53903;SDS011;39812;52.430;16.936;2023-08-24T02:47:41;6.68;;;3.80;;
53903;SDS011;39812;52.430;16.936;2023-08-24T02:50:06;5.05;;;3.60;;
53903;SDS011;39812;52.430;16.936;2023-08-24T02:52:32;7.78;;;3.50;;
53903;SDS011;39812;52.430;16.936;2023-08-24T02:54:58;7.40;;;4.40;;
53903;SDS011;39812;52.430;16.936;2023-08-24T02:57:23;5.53;;;3.60;;
53903;SDS011;39812;52.430;16.936;2023-08-24T02:59:50;7.53;;;3.60;;
53903;SDS011;39812;52.430;16.936;2023-08-24T03:02:15;5.70;;;3.53;;
53903;SDS011;39812;52.430;16.936;2023-08-24T03:04:41;7.30;;;3.63;;
53903;SDS011;39812;52.430;16.936;2023-08-24T03:07:07;6.43;;;3.88;;
53903;SDS011;39812;52.430;16.936;2023-08-24T03:09:35;6.55;;;3.80;;
53903;SDS011;39812;52.430;16.936;2023-08-24T03:12:00;4.88;;;3.70;;
53903;SDS011;39812;52.430;16.936;2023-08-24T03:14:26;6.03;;;3.95;;
53903;SDS011;39812;52.430;16.936;2023-08-24T03:16:52;5.47;;;3.88;;
53903;SDS011;39812;52.430;16.936;2023-08-24T03:19:17;5.65;;;4.00;;
53903;SDS011;39812;52.430;16.936;2023-08-24T03:21:43;6.40;;;3.53;;
53903;SDS011;39812;52.430;16.936;2023-08-24T03:24:09;7.15;;;3.75;;
53903;SDS011;39812;52.430;16.936;2023-08-24T03:26:35;7.78;;;3.85;;
53903;SDS011;39812;52.430;16.936;2023-08-24T03:29:00;5.53;;;4.38;;
53903;SDS011;39812;52.430;16.936;2023-08-24T03:31:26;6.88;;;4.38;;
53903;SDS011;39812;52.430;16.936;2023-08-24T03:33:52;6.28;;;3.47;;
53903;SDS011;39812;52.430;16.936;2023-08-24T03:36:17;7.10;;;4.00;;
53903;SDS011;39812;52.430;16.936;2023-08-24T03:38:43;5.28;;;3.90;;
53903;SDS011;39812;52.430;16.936;2023-08-24T03:41:10;8.77;;;4.63;;
53903;SDS011;39812;52.430;16.936;2023-08-24T03:43:36;8.05;;;4.45;;
53903;SDS011;39812;52.430;16.936;2023-08-24T03:46:04;6.95;;;4.13;;
53903;SDS011;39812;52.430;16.936;2023-08-24T03:48:30;8.73;;;4.22;;
53903;SDS011;39812;52.430;16.936;2023-08-24T03:50:57;6.50;;;4.30;;
53903;SDS011;39812;52.430;16.936;2023-08-24T03:53:23;7.72;;;4.53;;
53903;SDS011;39812;52.430;16.936;2023-08-24T03:55:49;6.60;;;5.05;;
53903;SDS011;39812;52.430;16.936;2023-08-24T03:58:15;7.50;;;5.32;;
53903;SDS011;39812;52.430;16.936;2023-08-24T04:00:41;7.53;;;5.20;;
53903;SDS011;39812;52.430;16.936;2023-08-24T04:03:08;8.32;;;5.10;;
53903;SDS011;39812;52.430;16.936;2023-08-24T04:05:33;10.38;;;5.80;;
53903;SDS011;39812;52.430;16.936;2023-08-24T04:07:59;7.90;;;5.35;;
53903;SDS011;39812;52.430;16.936;2023-08-24T04:10:29;9.48;;;5.47;;
53903;SDS011;39812;52.430;16.936;2023-08-24T04:12:55;10.65;;;6.07;;
53903;SDS011;39812;52.430;16.936;2023-08-24T04:15:21;9.00;;;5.60;;
53903;SDS011;39812;52.430;16.936;2023-08-24T04:17:47;9.40;;;5.22;;
53903;SDS011;39812;52.430;16.936;2023-08-24T04:20:13;9.45;;;6.03;;
53903;SDS011;39812;52.430;16.936;2023-08-24T04:22:39;6.88;;;5.35;;
53903;SDS011;39812;52.430;16.936;2023-08-24T04:25:04;7.32;;;5.25;;
53903;SDS011;39812;52.430;16.936;2023-08-24T04:27:31;8.68;;;6.03;;
53903;SDS011;39812;52.430;16.936;2023-08-24T04:29:57;6.68;;;5.22;;
53903;SDS011;39812;52.430;16.936;2023-08-24T04:32:23;10.60;;;5.57;;
53903;SDS011;39812;52.430;16.936;2023-08-24T04:34:49;9.25;;;5.70;;
53903;SDS011;39812;52.430;16.936;2023-08-24T04:37:14;10.25;;;5.60;;
53903;SDS011;39812;52.430;16.936;2023-08-24T04:39:40;7.43;;;5.13;;
53903;SDS011;39812;52.430;16.936;2023-08-24T04:42:06;8.73;;;4.50;;
53903;SDS011;39812;52.430;16.936;2023-08-24T04:44:32;9.43;;;5.70;;
53903;SDS011;39812;52.430;16.936;2023-08-24T04:46:58;7.05;;;5.22;;
53903;SDS011;39812;52.430;16.936;2023-08-24T04:49:23;10.00;;;5.15;;
53903;SDS011;39812;52.430;16.936;2023-08-24T04:51:49;7.38;;;5.07;;
53903;SDS011;39812;52.430;16.936;2023-08-24T04:54:15;9.63;;;4.70;;
53903;SDS011;39812;52.430;16.936;2023-08-24T04:56:40;7.63;;;5.45;;
53903;SDS011;39812;52.430;16.936;2023-08-24T04:59:06;8.38;;;5.05;;
53903;SDS011;39812;52.430;16.936;2023-08-24T05:01:33;9.25;;;5.00;;
53903;SDS011;39812;52.430;16.936;2023-08-24T05:03:59;9.35;;;5.60;;
53903;SDS011;39812;52.430;16.936;2023-08-24T05:06:25;9.32;;;5.38;;
53903;SDS011;39812;52.430;16.936;2023-08-24T05:08:50;8.35;;;5.05;;
53903;SDS011;39812;52.430;16.936;2023-08-24T05:11:17;10.68;;;4.97;;
53903;SDS011;39812;52.430;16.936;2023-08-24T05:13:44;8.88;;;4.47;;
53903;SDS011;39812;52.430;16.936;2023-08-24T05:16:11;6.45;;;5.07;;
53903;SDS011;39812;52.430;16.936;2023-08-24T05:18:37;6.97;;;4.55;;
53903;SDS011;39812;52.430;16.936;2023-08-24T05:21:04;8.95;;;4.57;;
53903;SDS011;39812;52.430;16.936;2023-08-24T05:23:31;6.57;;;4.38;;
53903;SDS011;39812;52.430;16.936;2023-08-24T05:25:57;6.00;;;4.05;;
53903;SDS011;39812;52.430;16.936;2023-08-24T05:28:24;8.65;;;4.60;;
53903;SDS011;39812;52.430;16.936;2023-08-24T05:30:54;10.48;;;4.85;;
53903;SDS011;39812;52.430;16.936;2023-08-24T05:33:20;7.20;;;4.80;;
53903;SDS011;39812;52.430;16.936;2023-08-24T05:35:47;6.82;;;4.47;;
53903;SDS011;39812;52.430;16.936;2023-08-24T05:38:16;8.50;;;4.90;;
53903;SDS011;39812;52.430;16.936;2023-08-24T05:40:43;7.75;;;4.88;;
53903;SDS011;39812;52.430;16.936;2023-08-24T05:43:11;7.57;;;4.63;;
53903;SDS011;39812;52.430;16.936;2023-08-24T05:45:37;8.93;;;5.53;;
53903;SDS011;39812;52.430;16.936;2023-08-24T05:48:05;8.40;;;4.85;;
53903;SDS011;39812;52.430;16.936;2023-08-24T05:50:31;9.73;;;5.00;;
53903;SDS011;39812;52.430;16.936;2023-08-24T05:52:57;8.63;;;5.32;;
53903;SDS011;39812;52.430;16.936;2023-08-24T05:55:23;6.72;;;4.72;;
53903;SDS011;39812;52.430;16.936;2023-08-24T05:57:48;9.13;;;5.03;;
53903;SDS011;39812;52.430;16.936;2023-08-24T06:00:14;8.43;;;4.78;;
53903;SDS011;39812;52.430;16.936;2023-08-24T06:02:40;7.75;;;4.72;;
53903;SDS011;39812;52.430;16.936;2023-08-24T06:05:06;6.97;;;4.45;;
53903;SDS011;39812;52.430;16.936;2023-08-24T06:07:32;6.60;;;4.07;;
53903;SDS011;39812;52.430;16.936;2023-08-24T06:09:58;6.68;;;3.75;;
53903;SDS011;39812;52.430;16.936;2023-08-24T06:12:24;7.72;;;4.22;;
53903;SDS011;39812;52.430;16.936;2023-08-24T06:14:50;8.20;;;4.10;;
53903;SDS011;39812;52.430;16.936;2023-08-24T06:17:15;9.48;;;3.50;;
53903;SDS011;39812;52.430;16.936;2023-08-24T06:19:41;6.47;;;3.55;;
53903;SDS011;39812;52.430;16.936;2023-08-24T06:22:07;5.63;;;4.40;;
53903;SDS011;39812;52.430;16.936;2023-08-24T06:24:33;5.97;;;3.30;;
53903;SDS011;39812;52.430;16.936;2023-08-24T06:26:58;9.13;;;3.22;;
53903;SDS011;39812;52.430;16.936;2023-08-24T06:29:24;6.60;;;2.65;;
53903;SDS011;39812;52.430;16.936;2023-08-24T06:31:49;6.82;;;3.50;;
53903;SDS011;39812;52.430;16.936;2023-08-24T06:34:15;3.85;;;2.40;;
53903;SDS011;39812;52.430;16.936;2023-08-24T06:36:41;4.75;;;2.50;;
53903;SDS011;39812;52.430;16.936;2023-08-24T06:39:06;3.08;;;1.73;;
53903;SDS011;39812;52.430;16.936;2023-08-24T06:41:33;6.63;;;2.38;;
53903;SDS011;39812;52.430;16.936;2023-08-24T06:44:00;6.75;;;2.83;;
53903;SDS011;39812;52.430;16.936;2023-08-24T06:46:26;3.72;;;1.70;;
53903;SDS011;39812;52.430;16.936;2023-08-24T06:48:52;2.80;;;1.70;;
53903;SDS011;39812;52.430;16.936;2023-08-24T06:51:18;6.45;;;2.00;;
53903;SDS011;39812;52.430;16.936;2023-08-24T06:53:43;3.75;;;1.77;;
53903;SDS011;39812;52.430;16.936;2023-08-24T06:56:11;4.47;;;1.77;;
53903;SDS011;39812;52.430;16.936;2023-08-24T06:58:39;6.55;;;1.85;;
53903;SDS011;39812;52.430;16.936;2023-08-24T07:01:04;5.63;;;1.75;;
53903;SDS011;39812;52.430;16.936;2023-08-24T07:03:31;4.45;;;2.00;;
53903;SDS011;39812;52.430;16.936;2023-08-24T07:05:58;5.47;;;1.70;;
53903;SDS011;39812;52.430;16.936;2023-08-24T07:08:24;4.70;;;1.65;;
53903;SDS011;39812;52.430;16.936;2023-08-24T07:10:49;4.45;;;2.10;;
53903;SDS011;39812;52.430;16.936;2023-08-24T07:13:15;2.30;;;1.55;;
53903;SDS011;39812;52.430;16.936;2023-08-24T07:15:41;4.35;;;1.50;;
53903;SDS011;39812;52.430;16.936;2023-08-24T07:18:07;4.75;;;1.70;;
53903;SDS011;39812;52.430;16.936;2023-08-24T07:20:34;4.25;;;1.88;;
53903;SDS011;39812;52.430;16.936;2023-08-24T07:23:00;3.53;;;1.70;;
53903;SDS011;39812;52.430;16.936;2023-08-24T07:25:26;8.38;;;1.95;;
53903;SDS011;39812;52.430;16.936;2023-08-24T07:27:54;5.85;;;3.05;;
53903;SDS011;39812;52.430;16.936;2023-08-24T07:30:23;4.32;;;2.10;;
53903;SDS011;39812;52.430;16.936;2023-08-24T07:32:50;7.38;;;2.22;;
53903;SDS011;39812;52.430;16.936;2023-08-24T07:35:15;4.45;;;1.90;;
53903;SDS011;39812;52.430;16.936;2023-08-24T07:37:41;3.50;;;1.45;;
53903;SDS011;39812;52.430;16.936;2023-08-24T07:40:07;3.75;;;1.50;;
53903;SDS011;39812;52.430;16.936;2023-08-24T07:42:42;3.65;;;1.58;;
53903;SDS011;39812;52.430;16.936;2023-08-24T07:45:12;3.65;;;1.80;;
53903;SDS011;39812;52.430;16.936;2023-08-24T07:47:39;5.15;;;1.90;;
53903;SDS011;39812;52.430;16.936;2023-08-24T07:50:04;4.88;;;1.85;;
53903;SDS011;39812;52.430;16.936;2023-08-24T07:52:32;7.05;;;1.77;;
53903;SDS011;39812;52.430;16.936;2023-08-24T07:54:57;5.60;;;2.13;;
53903;SDS011;39812;52.430;16.936;2023-08-24T07:57:25;2.33;;;1.40;;
53903;SDS011;39812;52.430;16.936;2023-08-24T07:59:54;3.42;;;1.40;;
53903;SDS011;39812;52.430;16.936;2023-08-24T08:02:19;6.88;;;1.48;;
53903;SDS011;39812;52.430;16.936;2023-08-24T08:04:45;4.15;;;1.60;;
53903;SDS011;39812;52.430;16.936;2023-08-24T08:07:11;4.53;;;1.27;;
53903;SDS011;39812;52.430;16.936;2023-08-24T08:09:37;5.90;;;1.50;;
53903;SDS011;39812;52.430;16.936;2023-08-24T08:12:03;6.20;;;1.52;;
53903;SDS011;39812;52.430;16.936;2023-08-24T08:14:29;2.90;;;1.35;;
53903;SDS011;39812;52.430;16.936;2023-08-24T08:16:58;2.72;;;1.35;;
53903;SDS011;39812;52.430;16.936;2023-08-24T08:19:23;3.03;;;1.27;;
53903;SDS011;39812;52.430;16.936;2023-08-24T08:21:51;4.07;;;1.30;;
53903;SDS011;39812;52.430;16.936;2023-08-24T08:24:17;4.97;;;1.40;;
53903;SDS011;39812;52.430;16.936;2023-08-24T08:26:43;3.25;;;1.38;;
53903;SDS011;39812;52.430;16.936;2023-08-24T08:29:08;4.43;;;1.40;;
53903;SDS011;39812;52.430;16.936;2023-08-24T08:31:34;3.58;;;1.20;;
53903;SDS011;39812;52.430;16.936;2023-08-24T08:34:00;2.35;;;1.40;;
53903;SDS011;39812;52.430;16.936;2023-08-24T08:36:26;3.30;;;1.40;;
53903;SDS011;39812;52.430;16.936;2023-08-24T08:38:52;5.00;;;1.20;;
53903;SDS011;39812;52.430;16.936;2023-08-24T08:41:17;2.58;;;1.33;;
53903;SDS011;39812;52.430;16.936;2023-08-24T08:43:48;4.22;;;1.02;;
53903;SDS011;39812;52.430;16.936;2023-08-24T08:46:14;2.78;;;1.27;;
53903;SDS011;39812;52.430;16.936;2023-08-24T08:48:41;2.80;;;1.30;;
53903;SDS011;39812;52.430;16.936;2023-08-24T08:51:07;5.30;;;1.55;;
53903;SDS011;39812;52.430;16.936;2023-08-24T08:53:34;2.78;;;1.35;;
53903;SDS011;39812;52.430;16.936;2023-08-24T08:56:00;4.15;;;1.35;;
53903;SDS011;39812;52.430;16.936;2023-08-24T08:58:29;4.07;;;1.00;;
53903;SDS011;39812;52.430;16.936;2023-08-24T09:00:56;2.47;;;1.00;;
53903;SDS011;39812;52.430;16.936;2023-08-24T09:03:25;3.00;;;1.17;;
53903;SDS011;39812;52.430;16.936;2023-08-24T09:05:52;3.45;;;1.00;;
53903;SDS011;39812;52.430;16.936;2023-08-24T09:08:18;3.45;;;1.20;;
53903;SDS011;39812;52.430;16.936;2023-08-24T09:10:45;2.28;;;1.27;;
53903;SDS011;39812;52.430;16.936;2023-08-24T09:13:10;1.95;;;1.10;;
53903;SDS011;39812;52.430;16.936;2023-08-24T09:15:37;5.55;;;2.40;;
53903;SDS011;39812;52.430;16.936;2023-08-24T09:18:02;4.38;;;1.08;;
53903;SDS011;39812;52.430;16.936;2023-08-24T09:20:28;2.90;;;0.80;;
53903;SDS011;39812;52.430;16.936;2023-08-24T09:22:54;4.45;;;1.10;;
53903;SDS011;39812;52.430;16.936;2023-08-24T09:25:22;2.72;;;1.48;;
53903;SDS011;39812;52.430;16.936;2023-08-24T09:28:01;2.03;;;1.20;;
53903;SDS011;39812;52.430;16.936;2023-08-24T09:30:32;4.32;;;1.10;;
53903;SDS011;39812;52.430;16.936;2023-08-24T09:33:03;3.72;;;1.20;;
53903;SDS011;39812;52.430;16.936;2023-08-24T09:35:34;7.20;;;1.35;;
53903;SDS011;39812;52.430;16.936;2023-08-24T09:38:14;1.55;;;1.17;;
53903;SDS011;39812;52.430;16.936;2023-08-24T09:40:44;2.03;;;1.30;;
53903;SDS011;39812;52.430;16.936;2023-08-24T09:43:14;3.97;;;1.33;;
53903;SDS011;39812;52.430;16.936;2023-08-24T09:45:52;2.20;;;1.30;;
53903;SDS011;39812;52.430;16.936;2023-08-24T09:48:20;1.90;;;1.10;;
53903;SDS011;39812;52.430;16.936;2023-08-24T09:50:47;2.55;;;1.20;;
53903;SDS011;39812;52.430;16.936;2023-08-24T09:53:20;6.50;;;1.50;;
53903;SDS011;39812;52.430;16.936;2023-08-24T09:55:54;3.60;;;1.42;;
53903;SDS011;39812;52.430;16.936;2023-08-24T09:58:26;2.97;;;1.30;;
53903;SDS011;39812;52.430;16.936;2023-08-24T10:00:52;3.30;;;1.30;;
53903;SDS011;39812;52.430;16.936;2023-08-24T10:03:21;2.75;;;1.27;;
53903;SDS011;39812;52.430;16.936;2023-08-24T10:05:53;2.28;;;1.00;;
53903;SDS011;39812;52.430;16.936;2023-08-24T10:08:32;2.55;;;1.35;;
53903;SDS011;39812;52.430;16.936;2023-08-24T10:11:01;3.08;;;1.13;;
53903;SDS011;39812;52.430;16.936;2023-08-24T10:16:06;3.60;;;1.20;;
53903;SDS011;39812;52.430;16.936;2023-08-24T10:18:33;5.43;;;1.10;;
53903;SDS011;39812;52.430;16.936;2023-08-24T10:20:59;2.88;;;1.20;;
53903;SDS011;39812;52.430;16.936;2023-08-24T10:23:27;2.15;;;1.20;;
53903;SDS011;39812;52.430;16.936;2023-08-24T10:25:54;4.13;;;1.20;;
53903;SDS011;39812;52.430;16.936;2023-08-24T10:28:20;2.85;;;1.20;;
53903;SDS011;39812;52.430;16.936;2023-08-24T10:30:52;3.70;;;1.27;;
53903;SDS011;39812;52.430;16.936;2023-08-24T10:33:20;2.83;;;1.17;;
53903;SDS011;39812;52.430;16.936;2023-08-24T10:35:47;3.95;;;1.20;;
53903;SDS011;39812;52.430;16.936;2023-08-24T10:38:23;3.78;;;1.20;;
53903;SDS011;39812;52.430;16.936;2023-08-24T10:40:50;3.22;;;1.20;;
53903;SDS011;39812;52.430;16.936;2023-08-24T10:43:16;1.77;;;1.00;;
53903;SDS011;39812;52.430;16.936;2023-08-24T10:46:00;2.72;;;1.10;;
53903;SDS011;39812;52.430;16.936;2023-08-24T10:48:29;2.28;;;1.40;;
53903;SDS011;39812;52.430;16.936;2023-08-24T10:51:38;2.67;;;1.25;;
53903;SDS011;39812;52.430;16.936;2023-08-24T10:53:58;4.70;;;2.65;;
53903;SDS011;39812;52.430;16.936;2023-08-24T10:56:35;5.70;;;1.52;;
53903;SDS011;39812;52.430;16.936;2023-08-24T10:59:16;2.92;;;1.17;;
53903;SDS011;39812;52.430;16.936;2023-08-24T11:04:17;2.15;;;1.20;;
53903;SDS011;39812;52.430;16.936;2023-08-24T11:09:18;2.58;;;1.27;;
53903;SDS011;39812;52.430;16.936;2023-08-24T11:11:55;1.67;;;1.20;;
53903;SDS011;39812;52.430;16.936;2023-08-24T11:14:27;3.67;;;1.13;;
53903;SDS011;39812;52.430;16.936;2023-08-24T11:16:59;5.35;;;1.60;;
53903;SDS011;39812;52.430;16.936;2023-08-24T11:19:25;2.90;;;1.38;;
53903;SDS011;39812;52.430;16.936;2023-08-24T11:21:51;2.58;;;1.20;;
53903;SDS011;39812;52.430;16.936;2023-08-24T11:24:17;3.08;;;1.17;;
53903;SDS011;39812;52.430;16.936;2023-08-24T11:26:46;1.98;;;1.05;;
53903;SDS011;39812;52.430;16.936;2023-08-24T11:29:14;2.28;;;1.15;;
53903;SDS011;39812;52.430;16.936;2023-08-24T11:31:40;2.78;;;1.15;;
53903;SDS011;39812;52.430;16.936;2023-08-24T11:34:06;3.17;;;1.35;;
53903;SDS011;39812;52.430;16.936;2023-08-24T11:36:42;6.38;;;1.48;;
53903;SDS011;39812;52.430;16.936;2023-08-24T11:39:14;2.80;;;1.20;;
53903;SDS011;39812;52.430;16.936;2023-08-24T11:41:41;5.28;;;2.25;;
53903;SDS011;39812;52.430;16.936;2023-08-24T11:44:07;4.18;;;1.40;;
53903;SDS011;39812;52.430;16.936;2023-08-24T11:46:33;4.68;;;1.25;;
53903;SDS011;39812;52.430;16.936;2023-08-24T11:48:58;3.63;;;1.40;;
53903;SDS011;39812;52.430;16.936;2023-08-24T11:51:24;3.05;;;1.30;;
53903;SDS011;39812;52.430;16.936;2023-08-24T11:53:50;4.55;;;1.23;;
53903;SDS011;39812;52.430;16.936;2023-08-24T11:56:16;3.45;;;1.30;;
53903;SDS011;39812;52.430;16.936;2023-08-24T11:58:43;4.82;;;1.42;;
53903;SDS011;39812;52.430;16.936;2023-08-24T12:01:12;2.88;;;1.50;;
53903;SDS011;39812;52.430;16.936;2023-08-24T12:03:38;3.65;;;1.42;;
53903;SDS011;39812;52.430;16.936;2023-08-24T12:06:14;6.30;;;1.70;;
53903;SDS011;39812;52.430;16.936;2023-08-24T12:08:41;3.70;;;1.20;;
53903;SDS011;39812;52.430;16.936;2023-08-24T12:11:13;2.50;;;1.48;;
53903;SDS011;39812;52.430;16.936;2023-08-24T12:13:43;4.55;;;1.45;;
53903;SDS011;39812;52.430;16.936;2023-08-24T12:16:20;3.95;;;1.35;;
53903;SDS011;39812;52.430;16.936;2023-08-24T12:21:18;2.55;;;1.30;;
53903;SDS011;39812;52.430;16.936;2023-08-24T12:23:44;4.35;;;1.40;;
53903;SDS011;39812;52.430;16.936;2023-08-24T12:26:19;4.93;;;1.52;;
53903;SDS011;39812;52.430;16.936;2023-08-24T12:28:49;4.78;;;1.60;;
53903;SDS011;39812;52.430;16.936;2023-08-24T12:31:16;3.70;;;1.40;;
53903;SDS011;39812;52.430;16.936;2023-08-24T12:33:42;4.30;;;1.45;;
53903;SDS011;39812;52.430;16.936;2023-08-24T12:36:09;1.90;;;1.20;;
53903;SDS011;39812;52.430;16.936;2023-08-24T12:38:35;3.50;;;1.17;;
53903;SDS011;39812;52.430;16.936;2023-08-24T12:41:01;4.55;;;1.50;;
53903;SDS011;39812;52.430;16.936;2023-08-24T12:43:27;2.67;;;1.38;;
53903;SDS011;39812;52.430;16.936;2023-08-24T12:45:53;6.18;;;1.50;;
53903;SDS011;39812;52.430;16.936;2023-08-24T12:48:18;2.47;;;1.48;;
53903;SDS011;39812;52.430;16.936;2023-08-24T12:50:44;5.60;;;1.52;;
53903;SDS011;39812;52.430;16.936;2023-08-24T12:53:10;3.67;;;1.10;;
53903;SDS011;39812;52.430;16.936;2023-08-24T12:55:36;4.35;;;1.30;;
53903;SDS011;39812;52.430;16.936;2023-08-24T12:58:03;6.28;;;1.45;;
53903;SDS011;39812;52.430;16.936;2023-08-24T13:00:29;4.30;;;1.42;;
53903;SDS011;39812;52.430;16.936;2023-08-24T13:02:55;4.85;;;1.60;;
53903;SDS011;39812;52.430;16.936;2023-08-24T13:05:21;2.92;;;1.40;;
53903;SDS011;39812;52.430;16.936;2023-08-24T13:07:47;5.15;;;1.70;;
53903;SDS011;39812;52.430;16.936;2023-08-24T13:10:12;6.40;;;1.73;;
53903;SDS011;39812;52.430;16.936;2023-08-24T13:12:39;3.25;;;1.40;;
53903;SDS011;39812;52.430;16.936;2023-08-24T13:15:04;7.35;;;1.88;;
53903;SDS011;39812;52.430;16.936;2023-08-24T13:17:31;3.10;;;1.55;;
53903;SDS011;39812;52.430;16.936;2023-08-24T13:19:56;5.45;;;1.85;;
53903;SDS011;39812;52.430;16.936;2023-08-24T13:22:22;5.40;;;1.45;;
53903;SDS011;39812;52.430;16.936;2023-08-24T13:24:48;3.78;;;1.67;;
53903;SDS011;39812;52.430;16.936;2023-08-24T13:27:14;5.75;;;1.90;;
53903;SDS011;39812;52.430;16.936;2023-08-24T13:29:40;3.35;;;1.23;;
53903;SDS011;39812;52.430;16.936;2023-08-24T13:32:05;4.93;;;1.60;;
53903;SDS011;39812;52.430;16.936;2023-08-24T13:34:31;2.53;;;1.55;;
53903;SDS011;39812;52.430;16.936;2023-08-24T13:36:57;4.72;;;1.60;;
53903;SDS011;39812;52.430;16.936;2023-08-24T13:39:25;4.47;;;1.90;;
53903;SDS011;39812;52.430;16.936;2023-08-24T13:41:53;6.57;;;1.98;;
53903;SDS011;39812;52.430;16.936;2023-08-24T13:44:19;4.03;;;2.00;;
53903;SDS011;39812;52.430;16.936;2023-08-24T13:46:45;6.72;;;1.70;;
53903;SDS011;39812;52.430;16.936;2023-08-24T13:49:11;7.13;;;2.17;;
53903;SDS011;39812;52.430;16.936;2023-08-24T13:51:37;3.38;;;1.75;;
53903;SDS011;39812;52.430;16.936;2023-08-24T13:54:03;4.28;;;1.60;;
53903;SDS011;39812;52.430;16.936;2023-08-24T13:56:36;3.15;;;1.52;;
53903;SDS011;39812;52.430;16.936;2023-08-24T13:59:03;5.60;;;1.70;;
53903;SDS011;39812;52.430;16.936;2023-08-24T14:01:28;3.03;;;1.60;;
53903;SDS011;39812;52.430;16.936;2023-08-24T14:03:54;5.28;;;1.50;;
53903;SDS011;39812;52.430;16.936;2023-08-24T14:06:20;4.40;;;1.58;;
53903;SDS011;39812;52.430;16.936;2023-08-24T14:08:45;6.63;;;1.70;;
53903;SDS011;39812;52.430;16.936;2023-08-24T14:11:11;3.28;;;1.50;;
53903;SDS011;39812;52.430;16.936;2023-08-24T14:13:37;6.53;;;1.45;;
53903;SDS011;39812;52.430;16.936;2023-08-24T14:16:02;4.68;;;1.48;;
53903;SDS011;39812;52.430;16.936;2023-08-24T14:18:29;4.40;;;1.55;;
53903;SDS011;39812;52.430;16.936;2023-08-24T14:20:55;3.05;;;1.25;;
53903;SDS011;39812;52.430;16.936;2023-08-24T14:23:21;6.93;;;1.30;;
53903;SDS011;39812;52.430;16.936;2023-08-24T14:25:46;6.63;;;1.52;;
53903;SDS011;39812;52.430;16.936;2023-08-24T14:28:13;3.78;;;1.50;;
53903;SDS011;39812;52.430;16.936;2023-08-24T14:30:39;5.88;;;1.40;;
53903;SDS011;39812;52.430;16.936;2023-08-24T14:33:05;6.22;;;1.30;;
53903;SDS011;39812;52.430;16.936;2023-08-24T14:35:30;4.93;;;1.45;;
53903;SDS011;39812;52.430;16.936;2023-08-24T14:37:57;7.95;;;1.50;;
53903;SDS011;39812;52.430;16.936;2023-08-24T14:40:23;2.08;;;1.25;;
53903;SDS011;39812;52.430;16.936;2023-08-24T14:42:48;2.45;;;1.17;;
53903;SDS011;39812;52.430;16.936;2023-08-24T14:45:14;3.25;;;1.42;;
53903;SDS011;39812;52.430;16.936;2023-08-24T14:47:41;4.68;;;1.20;;